Pagrindinis puslapis
METAR-TAF:

METAR-TAF

Oro uostai :

Fernando de Noronija, Pernambuco, Brazilija

platuma: 03-51S, ilguma: 032-25W, Aukštis: 56 m

Dabartinis oras

Ataskaita buvo paskelbta 2 valandos ir 0 minutes, ne 21:30 UTC
Vėjas 13 kt iš Rytų/Pietryčių
Temperatūra 26°C
Drėgmė 84%
Slėgis 1013 hPa
Matomumas 10 km arba daugiau
Mažai debesys ne aukštis 1500 ft
Išsisklaidę debesys ne aukštis 2500 ft

METAR: SBFN 282130Z 12013KT 9999 FEW015 SCT025 26/23 Q1013

Laikas: 21:30 (23:30 UTC)

Prognozė

Ataskaita buvo paskelbta 8 valandos ir 30 minutes, ne 15:00 UTC
Prognozė galioja nuo 28 metu 18 UTC su 29 metu 06 UTC
Vėjas 15 kt iš Pietryčių
Matomumas 10 km arba daugiau
Išsisklaidę debesys ne aukštis 2000 ft

TAF: SBFN 281500Z 2818/2906 14015KT 9999 SCT020 TX29/2818Z TN27/2821Z RMK PHD

Orai ataskaitas ir orų prognozės (METAR, TAF).

turimą stotys yra geltonos ir raudonos taškus žemėlapyje.

Perkelti pele per norėdami pamatyti stoties vardą.

Tada spustelėkite, norėdami matyti oro stebėjimo ir prognozės.

Norėdami pakeisti žemėlapį: spustelėkite ant žalios mygtukų su juodo kryžiaus žemyn,; žalią mygtuką su brūkšneliu, jei norite nutolinti; arba žalių rodyklių gretimoms žemėlapius.


METAR-TAF: